createdAt,value
2022-08-11T00:01:14.695Z,2.40
2022-08-11T00:03:48.174Z,2.53
2022-08-11T00:06:25.274Z,2.60
2022-08-11T00:08:54.409Z,2.70
2022-08-11T00:11:24.079Z,2.67
2022-08-11T00:13:55.614Z,2.47
2022-08-11T00:16:26.331Z,2.67
2022-08-11T00:18:56.701Z,2.33
2022-08-11T00:22:01.946Z,2.20
2022-08-11T00:24:15.737Z,2.10
2022-08-11T00:26:49.737Z,2.27
2022-08-11T00:29:18.251Z,2.50
2022-08-11T00:31:50.682Z,2.13
2022-08-11T00:34:21.465Z,2.50
2022-08-11T00:36:53.800Z,2.30
2022-08-11T00:39:28.476Z,2.23
2022-08-11T00:42:12.021Z,2.73
2022-08-11T00:44:50.266Z,2.53
2022-08-11T00:47:27.458Z,2.70
2022-08-11T00:50:08.818Z,2.83
2022-08-11T00:53:00.644Z,2.53
2022-08-11T00:56:08.918Z,2.70
2022-08-11T00:59:34.230Z,2.90
2022-08-11T01:02:16.850Z,2.70
2022-08-11T01:05:25.910Z,3.00
2022-08-11T01:08:16.082Z,3.37
2022-08-11T01:10:55.647Z,3.23
2022-08-11T01:14:06.271Z,3.10
2022-08-11T01:17:29.995Z,3.07
2022-08-11T01:20:45.868Z,3.53
2022-08-11T01:23:41.229Z,2.77
2022-08-11T01:26:45.230Z,3.17
2022-08-11T01:30:00.159Z,2.70
2022-08-11T01:33:25.373Z,3.10
2022-08-11T01:36:25.318Z,3.73
2022-08-11T01:39:20.063Z,3.37
2022-08-11T01:42:30.085Z,3.70
2022-08-11T01:45:12.427Z,3.43
2022-08-11T01:47:54.634Z,3.43
2022-08-11T01:50:36.733Z,3.60
2022-08-11T01:53:22.451Z,3.33
2022-08-11T01:55:59.221Z,3.37
2022-08-11T01:58:43.697Z,3.50
2022-08-11T02:01:25.426Z,3.60
2022-08-11T02:03:59.430Z,4.03
2022-08-11T02:06:54.005Z,3.70
2022-08-11T02:09:35.129Z,3.67
2022-08-11T02:12:15.293Z,3.40
2022-08-11T02:15:05.124Z,4.03
2022-08-11T02:17:54.907Z,3.70
2022-08-11T02:20:44.958Z,3.60
2022-08-11T02:24:06.735Z,4.00
2022-08-11T02:26:41.541Z,3.60
2022-08-11T02:29:17.935Z,3.43
2022-08-11T02:32:29.926Z,3.60
2022-08-11T02:35:11.281Z,3.40
2022-08-11T02:37:49.822Z,3.63
2022-08-11T02:40:25.119Z,3.87
2022-08-11T02:43:06.888Z,3.00
2022-08-11T02:45:54.481Z,2.60
2022-08-11T02:48:55.229Z,2.70
2022-08-11T02:51:33.393Z,2.60
2022-08-11T02:54:09.811Z,2.50
2022-08-11T02:56:52.064Z,3.20
2022-08-11T02:59:53.564Z,3.60
2022-08-11T03:02:45.868Z,3.70
2022-08-11T03:05:32.173Z,3.70
2022-08-11T03:08:18.679Z,3.50
2022-08-11T03:11:09.706Z,3.07
2022-08-11T03:14:02.414Z,2.93
2022-08-11T03:16:53.710Z,2.60
2022-08-11T03:19:31.350Z,3.57
2022-08-11T03:22:06.763Z,3.60
2022-08-11T03:24:50.434Z,3.50
2022-08-11T03:27:31.518Z,3.70
2022-08-11T03:30:07.647Z,3.47
2022-08-11T03:33:07.197Z,3.53
2022-08-11T03:35:40.246Z,3.50
2022-08-11T03:38:13.675Z,3.47
2022-08-11T03:41:57.602Z,4.00
2022-08-11T03:44:08.790Z,3.87
2022-08-11T03:46:48.576Z,3.37
2022-08-11T03:49:31.070Z,3.40
2022-08-11T03:52:12.845Z,3.20
2022-08-11T03:54:50.071Z,3.30
2022-08-11T03:57:46.691Z,3.33
2022-08-11T04:00:39.946Z,3.80
2022-08-11T04:03:38.227Z,3.80
2022-08-11T04:06:32.812Z,4.30
2022-08-11T04:09:57.419Z,3.83
2022-08-11T04:12:55.471Z,4.03
2022-08-11T04:16:11.739Z,4.30
2022-08-11T04:19:17.622Z,3.97
2022-08-11T04:22:18.008Z,4.10
2022-08-11T04:25:00.406Z,3.67
2022-08-11T04:28:29.330Z,3.93
2022-08-11T04:31:08.132Z,3.90
2022-08-11T04:34:00.841Z,4.20
2022-08-11T04:37:05.266Z,3.60
2022-08-11T04:39:50.285Z,3.90
2022-08-11T04:43:24.275Z,3.90
2022-08-11T04:46:22.075Z,3.70
2022-08-11T04:49:34.121Z,3.63
2022-08-11T04:52:47.076Z,4.00
2022-08-11T04:56:09.030Z,4.13
2022-08-11T04:59:14.354Z,4.10
2022-08-11T05:02:16.809Z,3.77
2022-08-11T05:05:21.680Z,4.20
2022-08-11T05:08:46.938Z,4.33
2022-08-11T05:11:42.147Z,4.40
2022-08-11T05:14:56.691Z,4.03
2022-08-11T05:17:52.977Z,4.77
2022-08-11T05:20:43.390Z,3.60
2022-08-11T05:23:30.274Z,3.67
2022-08-11T05:26:46.523Z,3.73
2022-08-11T05:29:47.076Z,3.57
2022-08-11T05:32:36.296Z,3.40
2022-08-11T05:35:07.833Z,3.37
2022-08-11T05:37:57.412Z,3.27
2022-08-11T05:40:43.497Z,3.60
2022-08-11T05:43:37.513Z,3.60
2022-08-11T05:46:47.222Z,3.43
2022-08-11T05:49:33.714Z,3.27
2022-08-11T05:52:21.669Z,3.00
2022-08-11T05:55:21.507Z,3.10
2022-08-11T05:57:51.898Z,3.30
2022-08-11T06:00:20.936Z,3.30
2022-08-11T06:02:55.305Z,3.10
2022-08-11T06:05:33.139Z,3.50
2022-08-11T06:08:13.584Z,3.10
2022-08-11T06:10:43.716Z,2.93
2022-08-11T06:13:16.315Z,3.30
2022-08-11T06:15:48.638Z,2.73
2022-08-11T06:18:19.466Z,2.73
2022-08-11T06:20:50.054Z,2.50
2022-08-11T06:23:20.431Z,2.70
2022-08-11T06:25:49.450Z,2.70
2022-08-11T06:28:20.719Z,2.60
2022-08-11T06:30:49.927Z,2.47
2022-08-11T06:33:30.607Z,2.60
2022-08-11T06:36:05.644Z,2.70
2022-08-11T06:38:48.330Z,2.80
2022-08-11T06:41:31.930Z,2.50
2022-08-11T06:44:21.879Z,2.20
2022-08-11T06:46:53.131Z,2.30
2022-08-11T06:49:50.717Z,2.10
2022-08-11T06:52:35.193Z,2.27
2022-08-11T06:55:54.800Z,2.70
2022-08-11T06:58:15.776Z,2.53
2022-08-11T07:00:44.899Z,2.53
2022-08-11T07:03:14.457Z,2.13
2022-08-11T07:05:56.686Z,2.50
2022-08-11T07:09:03.113Z,2.40
2022-08-11T07:12:19.286Z,2.60
2022-08-11T07:15:10.334Z,2.30
2022-08-11T07:17:43.878Z,2.50
2022-08-11T07:20:31.762Z,2.27
2022-08-11T07:23:22.207Z,2.30
2022-08-11T07:26:11.702Z,2.30
2022-08-11T07:28:59.126Z,2.20
2022-08-11T07:31:32.882Z,2.37
2022-08-11T07:34:17.392Z,2.17
2022-08-11T07:36:51.450Z,2.60
2022-08-11T07:39:23.331Z,2.50
2022-08-11T07:41:53.937Z,2.40
2022-08-11T07:44:29.422Z,2.53
2022-08-11T07:47:30.147Z,2.07
2022-08-11T07:50:16.115Z,2.50
2022-08-11T07:52:46.902Z,2.23
2022-08-11T07:55:48.972Z,2.10
2022-08-11T07:58:39.527Z,2.30
2022-08-11T08:01:36.798Z,2.27
2022-08-11T08:04:24.707Z,2.33
2022-08-11T08:07:11.415Z,2.23
2022-08-11T08:09:57.689Z,2.47
2022-08-11T08:12:45.358Z,2.13
2022-08-11T08:15:33.863Z,2.20
2022-08-11T08:18:09.439Z,2.23
2022-08-11T08:20:55.440Z,2.50
2022-08-11T08:23:34.394Z,2.23
2022-08-11T08:26:04.853Z,2.10
2022-08-11T08:28:35.458Z,2.13
2022-08-11T08:31:04.020Z,2.30
2022-08-11T08:33:33.110Z,2.00
2022-08-11T08:36:15.324Z,2.03
2022-08-11T08:38:48.748Z,2.00
2022-08-11T08:41:21.133Z,2.03
2022-08-11T08:43:53.495Z,2.27
2022-08-11T08:46:26.723Z,2.40
2022-08-11T08:48:56.238Z,2.00
